sensor_id;sensor_type;location;lat;lon;timestamp;pressure;altitude;pressure_sealevel;temperature;humidity
44313;BME280;38833;51.142;-0.974;2022-07-25T00:02:06;99473.77;;;27.85;33.36
44313;BME280;38833;51.142;-0.974;2022-07-25T00:04:39;99479.27;;;27.99;33.13
44313;BME280;38833;51.142;-0.974;2022-07-25T00:07:12;99470.18;;;27.91;33.26
44313;BME280;38833;51.142;-0.974;2022-07-25T00:09:46;99480.56;;;27.86;33.33
44313;BME280;38833;51.142;-0.974;2022-07-25T00:12:19;99487.64;;;27.93;33.27
44313;BME280;38833;51.142;-0.974;2022-07-25T00:14:53;99495.50;;;28.00;33.16
44313;BME280;38833;51.142;-0.974;2022-07-25T00:17:26;99481.46;;;28.18;33.20
44313;BME280;38833;51.142;-0.974;2022-07-25T00:19:59;99481.47;;;27.99;33.14
44313;BME280;38833;51.142;-0.974;2022-07-25T00:22:33;99474.10;;;28.27;33.07
44313;BME280;38833;51.142;-0.974;2022-07-25T00:25:07;99467.18;;;27.91;33.23
44313;BME280;38833;51.142;-0.974;2022-07-25T00:27:40;99474.86;;;28.11;32.90
44313;BME280;38833;51.142;-0.974;2022-07-25T00:30:13;99480.48;;;27.97;33.04
44313;BME280;38833;51.142;-0.974;2022-07-25T00:32:47;99473.52;;;28.15;32.84
44313;BME280;38833;51.142;-0.974;2022-07-25T00:35:20;99465.54;;;28.29;33.02
44313;BME280;38833;51.142;-0.974;2022-07-25T00:37:53;99454.39;;;28.21;33.07
44313;BME280;38833;51.142;-0.974;2022-07-25T00:40:27;99461.17;;;27.95;33.04
44313;BME280;38833;51.142;-0.974;2022-07-25T00:43:00;99455.20;;;27.90;33.12
44313;BME280;38833;51.142;-0.974;2022-07-25T00:45:34;99452.40;;;27.90;33.08
44313;BME280;38833;51.142;-0.974;2022-07-25T00:48:07;99450.75;;;28.18;33.06
44313;BME280;38833;51.142;-0.974;2022-07-25T00:50:40;99443.01;;;27.93;32.98
44313;BME280;38833;51.142;-0.974;2022-07-25T00:53:15;99450.62;;;28.08;32.83
44313;BME280;38833;51.142;-0.974;2022-07-25T00:55:48;99449.95;;;27.90;33.10
44313;BME280;38833;51.142;-0.974;2022-07-25T00:58:21;99445.66;;;27.87;33.17
44313;BME280;38833;51.142;-0.974;2022-07-25T01:00:55;99440.75;;;27.85;33.20
44313;BME280;38833;51.142;-0.974;2022-07-25T01:03:28;99454.56;;;28.10;33.20
44313;BME280;38833;51.142;-0.974;2022-07-25T01:06:02;99441.58;;;28.12;33.21
44313;BME280;38833;51.142;-0.974;2022-07-25T01:08:36;99438.06;;;27.81;33.24
44313;BME280;38833;51.142;-0.974;2022-07-25T01:11:09;99446.58;;;27.78;33.24
44313;BME280;38833;51.142;-0.974;2022-07-25T01:13:42;99441.32;;;27.83;33.15
44313;BME280;38833;51.142;-0.974;2022-07-25T01:16:16;99439.11;;;27.70;33.34
44313;BME280;38833;51.142;-0.974;2022-07-25T01:18:50;99432.22;;;27.89;33.17
44313;BME280;38833;51.142;-0.974;2022-07-25T01:21:23;99436.37;;;28.18;33.16
44313;BME280;38833;51.142;-0.974;2022-07-25T01:23:57;99441.80;;;27.90;33.04
44313;BME280;38833;51.142;-0.974;2022-07-25T01:26:30;99430.96;;;28.15;33.17
44313;BME280;38833;51.142;-0.974;2022-07-25T01:29:04;99430.70;;;27.91;33.10
44313;BME280;38833;51.142;-0.974;2022-07-25T01:31:37;99426.74;;;28.13;33.25
44313;BME280;38833;51.142;-0.974;2022-07-25T01:34:11;99427.28;;;27.86;33.13
44313;BME280;38833;51.142;-0.974;2022-07-25T01:36:44;99421.96;;;27.77;33.17
44313;BME280;38833;51.142;-0.974;2022-07-25T01:39:18;99425.73;;;28.16;33.10
44313;BME280;38833;51.142;-0.974;2022-07-25T01:41:51;99421.98;;;28.04;33.19
44313;BME280;38833;51.142;-0.974;2022-07-25T01:44:24;99424.43;;;28.09;33.14
44313;BME280;38833;51.142;-0.974;2022-07-25T01:46:57;99415.49;;;27.94;33.34
44313;BME280;38833;51.142;-0.974;2022-07-25T01:49:30;99408.54;;;28.14;33.34
44313;BME280;38833;51.142;-0.974;2022-07-25T01:52:04;99408.28;;;27.71;33.29
44313;BME280;38833;51.142;-0.974;2022-07-25T01:54:38;99408.59;;;27.68;33.31
44313;BME280;38833;51.142;-0.974;2022-07-25T01:57:11;99405.06;;;28.10;33.11
44313;BME280;38833;51.142;-0.974;2022-07-25T01:59:44;99401.95;;;28.17;33.09
44313;BME280;38833;51.142;-0.974;2022-07-25T02:04:33;99401.79;;;27.89;32.95
44313;BME280;38833;51.142;-0.974;2022-07-25T02:07:07;99400.72;;;27.85;32.99
44313;BME280;38833;51.142;-0.974;2022-07-25T02:09:40;99402.19;;;27.85;32.98
44313;BME280;38833;51.142;-0.974;2022-07-25T02:12:13;99396.68;;;27.96;33.17
44313;BME280;38833;51.142;-0.974;2022-07-25T02:14:47;99401.28;;;27.57;33.06
44313;BME280;38833;51.142;-0.974;2022-07-25T02:17:20;99407.74;;;28.18;32.85
44313;BME280;38833;51.142;-0.974;2022-07-25T02:19:53;99409.25;;;27.73;33.10
44313;BME280;38833;51.142;-0.974;2022-07-25T02:22:27;99407.60;;;27.94;33.23
44313;BME280;38833;51.142;-0.974;2022-07-25T02:25:00;99404.25;;;27.53;33.33
44313;BME280;38833;51.142;-0.974;2022-07-25T02:27:33;99408.17;;;27.82;33.27
44313;BME280;38833;51.142;-0.974;2022-07-25T02:30:07;99407.70;;;28.00;33.39
44313;BME280;38833;51.142;-0.974;2022-07-25T02:32:41;99406.46;;;27.50;33.37
44313;BME280;38833;51.142;-0.974;2022-07-25T02:35:14;99406.22;;;27.89;33.18
44313;BME280;38833;51.142;-0.974;2022-07-25T02:37:47;99403.13;;;27.74;33.36
44313;BME280;38833;51.142;-0.974;2022-07-25T02:40:21;99403.65;;;28.07;33.23
44313;BME280;38833;51.142;-0.974;2022-07-25T02:42:54;99409.58;;;28.09;33.24
44313;BME280;38833;51.142;-0.974;2022-07-25T02:45:27;99414.99;;;27.73;33.37
44313;BME280;38833;51.142;-0.974;2022-07-25T02:48:01;99409.61;;;27.55;33.24
44313;BME280;38833;51.142;-0.974;2022-07-25T02:50:35;99404.67;;;27.53;33.33
44313;BME280;38833;51.142;-0.974;2022-07-25T02:53:09;99402.83;;;27.73;33.02
44313;BME280;38833;51.142;-0.974;2022-07-25T02:55:42;99399.70;;;27.56;33.20
44313;BME280;38833;51.142;-0.974;2022-07-25T02:58:15;99392.74;;;27.66;33.13
44313;BME280;38833;51.142;-0.974;2022-07-25T03:00:48;99397.89;;;27.43;33.38
44313;BME280;38833;51.142;-0.974;2022-07-25T03:03:22;99404.55;;;27.46;33.32
44313;BME280;38833;51.142;-0.974;2022-07-25T03:05:55;99397.52;;;28.04;32.97
44313;BME280;38833;51.142;-0.974;2022-07-25T03:08:28;99399.00;;;27.81;33.21
44313;BME280;38833;51.142;-0.974;2022-07-25T03:11:02;99397.28;;;27.80;33.22
44313;BME280;38833;51.142;-0.974;2022-07-25T03:13:35;99397.13;;;27.73;33.32
44313;BME280;38833;51.142;-0.974;2022-07-25T03:16:09;99383.28;;;27.70;33.38
44313;BME280;38833;51.142;-0.974;2022-07-25T03:18:42;99382.12;;;27.67;33.40
44313;BME280;38833;51.142;-0.974;2022-07-25T03:21:16;99375.41;;;27.35;33.39
44313;BME280;38833;51.142;-0.974;2022-07-25T03:23:49;99370.95;;;27.73;33.25
44313;BME280;38833;51.142;-0.974;2022-07-25T03:26:23;99370.44;;;27.62;33.42
44313;BME280;38833;51.142;-0.974;2022-07-25T03:28:56;99370.31;;;27.81;33.44
44313;BME280;38833;51.142;-0.974;2022-07-25T03:31:29;99371.32;;;27.62;33.41
44313;BME280;38833;51.142;-0.974;2022-07-25T03:34:03;99371.58;;;27.76;33.53
44313;BME280;38833;51.142;-0.974;2022-07-25T03:36:36;99370.64;;;27.57;33.44
44313;BME280;38833;51.142;-0.974;2022-07-25T03:39:10;99375.14;;;27.56;33.44
44313;BME280;38833;51.142;-0.974;2022-07-25T03:41:43;99376.05;;;27.51;33.51
44313;BME280;38833;51.142;-0.974;2022-07-25T03:44:16;99379.73;;;27.52;33.50
44313;BME280;38833;51.142;-0.974;2022-07-25T03:46:50;99378.80;;;27.90;33.25
44313;BME280;38833;51.142;-0.974;2022-07-25T03:49:24;99379.14;;;27.47;33.49
44313;BME280;38833;51.142;-0.974;2022-07-25T03:51:57;99382.23;;;27.74;33.45
44313;BME280;38833;51.142;-0.974;2022-07-25T03:54:30;99382.31;;;27.48;33.51
44313;BME280;38833;51.142;-0.974;2022-07-25T03:57:04;99388.14;;;27.72;33.49
44313;BME280;38833;51.142;-0.974;2022-07-25T03:59:37;99383.89;;;27.50;33.47
44313;BME280;38833;51.142;-0.974;2022-07-25T04:02:11;99384.45;;;27.54;33.46
44313;BME280;38833;51.142;-0.974;2022-07-25T04:04:44;99386.28;;;27.54;33.50
44313;BME280;38833;51.142;-0.974;2022-07-25T04:07:17;99384.71;;;27.27;33.42
44313;BME280;38833;51.142;-0.974;2022-07-25T04:09:51;99384.91;;;27.42;33.52
44313;BME280;38833;51.142;-0.974;2022-07-25T04:12:24;99385.25;;;27.40;33.53
44313;BME280;38833;51.142;-0.974;2022-07-25T04:14:57;99380.21;;;27.23;33.41
44313;BME280;38833;51.142;-0.974;2022-07-25T04:17:31;99376.79;;;27.73;33.42
44313;BME280;38833;51.142;-0.974;2022-07-25T04:20:05;99374.09;;;27.75;33.38
44313;BME280;38833;51.142;-0.974;2022-07-25T04:22:38;99377.98;;;27.63;33.50
44313;BME280;38833;51.142;-0.974;2022-07-25T04:25:12;99383.41;;;27.46;33.47
44313;BME280;38833;51.142;-0.974;2022-07-25T04:27:45;99388.21;;;27.16;33.50
44313;BME280;38833;51.142;-0.974;2022-07-25T04:30:18;99389.58;;;27.69;33.41
44313;BME280;38833;51.142;-0.974;2022-07-25T04:32:52;99384.08;;;27.68;33.41
44313;BME280;38833;51.142;-0.974;2022-07-25T04:35:25;99381.51;;;27.65;33.46
44313;BME280;38833;51.142;-0.974;2022-07-25T04:37:58;99379.70;;;27.45;33.51
44313;BME280;38833;51.142;-0.974;2022-07-25T04:40:31;99372.88;;;27.43;33.44
44313;BME280;38833;51.142;-0.974;2022-07-25T04:43:05;99373.17;;;27.41;33.42
44313;BME280;38833;51.142;-0.974;2022-07-25T04:45:38;99374.13;;;27.57;33.59
44313;BME280;38833;51.142;-0.974;2022-07-25T04:48:11;99377.56;;;27.29;33.69
44313;BME280;38833;51.142;-0.974;2022-07-25T04:50:45;99379.23;;;27.50;33.69
44313;BME280;38833;51.142;-0.974;2022-07-25T04:53:18;99381.06;;;27.51;33.62
44313;BME280;38833;51.142;-0.974;2022-07-25T04:55:52;99381.53;;;27.64;33.43
44313;BME280;38833;51.142;-0.974;2022-07-25T04:58:25;99383.10;;;27.43;33.40
44313;BME280;38833;51.142;-0.974;2022-07-25T05:00:58;99385.91;;;27.33;33.56
44313;BME280;38833;51.142;-0.974;2022-07-25T05:03:32;99381.92;;;27.58;33.47
44313;BME280;38833;51.142;-0.974;2022-07-25T05:06:06;99380.05;;;27.51;33.55
44313;BME280;38833;51.142;-0.974;2022-07-25T05:08:39;99373.68;;;26.96;33.65
44313;BME280;38833;51.142;-0.974;2022-07-25T05:11:12;99374.30;;;27.50;33.58
44313;BME280;38833;51.142;-0.974;2022-07-25T05:13:46;99379.29;;;27.23;33.67
44313;BME280;38833;51.142;-0.974;2022-07-25T05:16:19;99381.07;;;27.53;33.59
44313;BME280;38833;51.142;-0.974;2022-07-25T05:18:52;99381.39;;;27.51;33.61
44313;BME280;38833;51.142;-0.974;2022-07-25T05:21:25;99385.55;;;27.26;33.66
44313;BME280;38833;51.142;-0.974;2022-07-25T05:23:58;99388.74;;;27.46;33.69
44313;BME280;38833;51.142;-0.974;2022-07-25T05:26:32;99381.63;;;27.27;33.65
44313;BME280;38833;51.142;-0.974;2022-07-25T05:29:05;99379.94;;;27.54;33.59
44313;BME280;38833;51.142;-0.974;2022-07-25T05:31:38;99380.20;;;27.47;33.68
44313;BME280;38833;51.142;-0.974;2022-07-25T05:34:12;99383.45;;;27.27;33.66
44313;BME280;38833;51.142;-0.974;2022-07-25T05:36:45;99387.11;;;27.65;33.42
44313;BME280;38833;51.142;-0.974;2022-07-25T05:39:18;99392.48;;;27.49;33.62
44313;BME280;38833;51.142;-0.974;2022-07-25T05:41:52;99397.14;;;27.25;33.64
44313;BME280;38833;51.142;-0.974;2022-07-25T05:44:25;99406.37;;;27.19;33.70
44313;BME280;38833;51.142;-0.974;2022-07-25T05:46:58;99409.11;;;27.45;33.65
44313;BME280;38833;51.142;-0.974;2022-07-25T05:49:31;99411.09;;;27.51;33.58
44313;BME280;38833;51.142;-0.974;2022-07-25T05:52:05;99405.40;;;27.52;33.49
44313;BME280;38833;51.142;-0.974;2022-07-25T05:54:38;99404.27;;;26.99;33.58
44313;BME280;38833;51.142;-0.974;2022-07-25T05:57:12;99400.84;;;27.25;33.58
44313;BME280;38833;51.142;-0.974;2022-07-25T05:59:45;99400.65;;;27.23;33.69
44313;BME280;38833;51.142;-0.974;2022-07-25T06:02:18;99400.27;;;27.24;33.59
44313;BME280;38833;51.142;-0.974;2022-07-25T06:04:51;99403.21;;;27.38;33.71
44313;BME280;38833;51.142;-0.974;2022-07-25T06:07:25;99405.57;;;27.40;33.65
44313;BME280;38833;51.142;-0.974;2022-07-25T06:09:58;99400.49;;;27.35;33.73
44313;BME280;38833;51.142;-0.974;2022-07-25T06:12:31;99407.32;;;27.10;33.74
44313;BME280;38833;51.142;-0.974;2022-07-25T06:15:06;99410.16;;;27.34;33.71
44313;BME280;38833;51.142;-0.974;2022-07-25T06:17:39;99414.06;;;27.34;33.71
44313;BME280;38833;51.142;-0.974;2022-07-25T06:20:12;99413.32;;;27.37;33.68
44313;BME280;38833;51.142;-0.974;2022-07-25T06:22:46;99410.74;;;27.36;33.67
44313;BME280;38833;51.142;-0.974;2022-07-25T06:25:19;99410.86;;;27.41;33.65
44313;BME280;38833;51.142;-0.974;2022-07-25T06:27:52;99416.02;;;27.32;33.79
44313;BME280;38833;51.142;-0.974;2022-07-25T06:30:25;99415.25;;;27.32;33.73
44313;BME280;38833;51.142;-0.974;2022-07-25T06:32:59;99416.17;;;27.29;33.78
44313;BME280;38833;51.142;-0.974;2022-07-25T06:35:32;99411.82;;;27.07;33.77
44313;BME280;38833;51.142;-0.974;2022-07-25T06:38:05;99418.24;;;27.12;33.70
44313;BME280;38833;51.142;-0.974;2022-07-25T06:40:39;99410.81;;;27.08;33.72
44313;BME280;38833;51.142;-0.974;2022-07-25T06:43:12;99408.49;;;27.29;33.73
44313;BME280;38833;51.142;-0.974;2022-07-25T06:45:45;99415.54;;;27.11;33.67
44313;BME280;38833;51.142;-0.974;2022-07-25T06:48:19;99405.86;;;27.11;33.65
44313;BME280;38833;51.142;-0.974;2022-07-25T06:50:52;99413.01;;;27.32;33.72
44313;BME280;38833;51.142;-0.974;2022-07-25T06:53:25;99411.76;;;27.11;33.70
44313;BME280;38833;51.142;-0.974;2022-07-25T06:55:59;99416.52;;;27.35;33.70
44313;BME280;38833;51.142;-0.974;2022-07-25T06:58:32;99421.43;;;27.14;33.67
44313;BME280;38833;51.142;-0.974;2022-07-25T07:01:06;99420.68;;;27.16;33.67
44313;BME280;38833;51.142;-0.974;2022-07-25T07:03:39;99423.97;;;27.34;33.71
44313;BME280;38833;51.142;-0.974;2022-07-25T07:06:13;99425.51;;;27.16;33.64
44313;BME280;38833;51.142;-0.974;2022-07-25T07:08:46;99429.17;;;27.61;33.36
44313;BME280;38833;51.142;-0.974;2022-07-25T07:11:19;99429.06;;;27.48;33.53
44313;BME280;38833;51.142;-0.974;2022-07-25T07:13:52;99429.94;;;27.10;33.40
44313;BME280;38833;51.142;-0.974;2022-07-25T07:16:26;99429.87;;;27.27;33.53
44313;BME280;38833;51.142;-0.974;2022-07-25T07:18:59;99434.25;;;27.22;33.60
44313;BME280;38833;51.142;-0.974;2022-07-25T07:21:32;99437.05;;;27.21;33.60
44313;BME280;38833;51.142;-0.974;2022-07-25T07:24:06;99437.51;;;27.20;33.65
44313;BME280;38833;51.142;-0.974;2022-07-25T07:26:40;99434.99;;;27.46;33.57
44313;BME280;38833;51.142;-0.974;2022-07-25T07:29:13;99436.96;;;27.55;33.47
44313;BME280;38833;51.142;-0.974;2022-07-25T07:31:47;99435.55;;;27.49;33.58
44313;BME280;38833;51.142;-0.974;2022-07-25T07:34:21;99446.90;;;27.26;33.66
44313;BME280;38833;51.142;-0.974;2022-07-25T07:36:54;99437.40;;;27.51;33.62
44313;BME280;38833;51.142;-0.974;2022-07-25T07:39:27;99430.46;;;27.48;33.66
44313;BME280;38833;51.142;-0.974;2022-07-25T07:42:00;99427.66;;;27.52;33.62
44313;BME280;38833;51.142;-0.974;2022-07-25T07:44:34;99424.99;;;27.51;33.63
44313;BME280;38833;51.142;-0.974;2022-07-25T07:47:07;99424.14;;;27.50;33.64
44313;BME280;38833;51.142;-0.974;2022-07-25T07:49:41;99426.14;;;27.45;33.72
44313;BME280;38833;51.142;-0.974;2022-07-25T07:52:14;99431.38;;;27.39;33.81
44313;BME280;38833;51.142;-0.974;2022-07-25T07:54:48;99438.40;;;27.40;33.76
44313;BME280;38833;51.142;-0.974;2022-07-25T07:57:21;99440.37;;;27.30;33.61
44313;BME280;38833;51.142;-0.974;2022-07-25T07:59:54;99449.58;;;27.62;33.46
44313;BME280;38833;51.142;-0.974;2022-07-25T08:02:27;99452.97;;;27.39;33.45
44313;BME280;38833;51.142;-0.974;2022-07-25T08:05:01;99453.74;;;27.47;33.34
44313;BME280;38833;51.142;-0.974;2022-07-25T08:07:34;99452.60;;;27.66;33.35
44313;BME280;38833;51.142;-0.974;2022-07-25T08:10:08;99451.91;;;27.65;33.36
44313;BME280;38833;51.142;-0.974;2022-07-25T08:12:41;99454.72;;;27.63;33.08
44313;BME280;38833;51.142;-0.974;2022-07-25T08:15:15;99452.35;;;27.73;32.94
44313;BME280;38833;51.142;-0.974;2022-07-25T08:17:49;99455.22;;;27.65;33.03
44313;BME280;38833;51.142;-0.974;2022-07-25T08:20:23;99446.75;;;28.04;32.81
44313;BME280;38833;51.142;-0.974;2022-07-25T08:22:56;99444.32;;;27.86;32.74
44313;BME280;38833;51.142;-0.974;2022-07-25T08:25:30;99447.97;;;28.03;32.51
44313;BME280;38833;51.142;-0.974;2022-07-25T08:28:04;99450.00;;;27.99;32.55
44313;BME280;38833;51.142;-0.974;2022-07-25T08:30:39;99454.31;;;27.49;32.85
44313;BME280;38833;51.142;-0.974;2022-07-25T08:33:13;99461.03;;;27.42;32.96
44313;BME280;38833;51.142;-0.974;2022-07-25T08:35:48;99461.45;;;27.66;33.02
44313;BME280;38833;51.142;-0.974;2022-07-25T08:38:24;99457.22;;;27.91;33.01
44313;BME280;38833;51.142;-0.974;2022-07-25T08:40:57;99457.91;;;27.53;33.21
44313;BME280;38833;51.142;-0.974;2022-07-25T08:43:31;99456.92;;;28.12;32.73
44313;BME280;38833;51.142;-0.974;2022-07-25T08:46:05;99459.93;;;27.59;33.15
44313;BME280;38833;51.142;-0.974;2022-07-25T08:48:38;99457.93;;;28.01;32.89
44313;BME280;38833;51.142;-0.974;2022-07-25T08:51:12;99454.01;;;27.82;32.90
44313;BME280;38833;51.142;-0.974;2022-07-25T08:53:46;99458.66;;;27.88;32.80
44313;BME280;38833;51.142;-0.974;2022-07-25T08:56:20;99459.75;;;27.63;33.11
44313;BME280;38833;51.142;-0.974;2022-07-25T08:58:53;99465.30;;;27.57;33.25
44313;BME280;38833;51.142;-0.974;2022-07-25T09:01:26;99472.87;;;27.58;33.21
44313;BME280;38833;51.142;-0.974;2022-07-25T09:04:02;99472.47;;;28.10;32.84
44313;BME280;38833;51.142;-0.974;2022-07-25T09:06:35;99472.44;;;27.67;33.15
44313;BME280;38833;51.142;-0.974;2022-07-25T09:09:08;99475.44;;;27.63;33.18
44313;BME280;38833;51.142;-0.974;2022-07-25T09:11:43;99477.14;;;27.79;33.28
44313;BME280;38833;51.142;-0.974;2022-07-25T09:14:16;99482.19;;;27.78;33.29
44313;BME280;38833;51.142;-0.974;2022-07-25T09:16:49;99480.34;;;27.93;33.17
44313;BME280;38833;51.142;-0.974;2022-07-25T09:19:23;99481.69;;;27.85;33.23
44313;BME280;38833;51.142;-0.974;2022-07-25T09:21:59;99484.60;;;27.63;33.25
44313;BME280;38833;51.142;-0.974;2022-07-25T09:24:33;99487.63;;;27.63;33.22
44313;BME280;38833;51.142;-0.974;2022-07-25T09:27:08;99492.25;;;27.80;32.97
44313;BME280;38833;51.142;-0.974;2022-07-25T09:29:42;99488.17;;;27.37;33.18
44313;BME280;38833;51.142;-0.974;2022-07-25T09:32:17;99485.23;;;27.58;33.25
44313;BME280;38833;51.142;-0.974;2022-07-25T09:34:51;99491.01;;;27.51;33.38
44313;BME280;38833;51.142;-0.974;2022-07-25T09:37:25;99492.86;;;27.82;33.21
44313;BME280;38833;51.142;-0.974;2022-07-25T09:39:59;99494.07;;;27.43;33.50
44313;BME280;38833;51.142;-0.974;2022-07-25T09:42:32;99499.08;;;27.57;33.60
44313;BME280;38833;51.142;-0.974;2022-07-25T09:45:07;99500.85;;;27.35;33.60
44313;BME280;38833;51.142;-0.974;2022-07-25T09:47:58;99497.57;;;27.41;33.47
44313;BME280;38833;51.142;-0.974;2022-07-25T09:50:33;99500.27;;;27.50;33.44
44313;BME280;38833;51.142;-0.974;2022-07-25T09:53:06;99502.19;;;27.36;33.66
44313;BME280;38833;51.142;-0.974;2022-07-25T09:55:39;99505.27;;;27.38;33.66
44313;BME280;38833;51.142;-0.974;2022-07-25T09:58:13;99509.16;;;27.12;33.63
44313;BME280;38833;51.142;-0.974;2022-07-25T10:00:46;99512.39;;;27.13;33.62
44313;BME280;38833;51.142;-0.974;2022-07-25T10:03:31;99512.57;;;27.37;33.68
44313;BME280;38833;51.142;-0.974;2022-07-25T10:06:18;99514.92;;;27.13;33.66
44313;BME280;38833;51.142;-0.974;2022-07-25T10:08:53;99519.59;;;27.15;33.61
44313;BME280;38833;51.142;-0.974;2022-07-25T10:11:27;99520.10;;;27.42;33.65
44313;BME280;38833;51.142;-0.974;2022-07-25T10:14:08;99519.39;;;27.50;33.54
44313;BME280;38833;51.142;-0.974;2022-07-25T10:16:46;99523.04;;;27.22;33.57
44313;BME280;38833;51.142;-0.974;2022-07-25T10:19:38;99519.28;;;27.40;33.62
44313;BME280;38833;51.142;-0.974;2022-07-25T10:22:12;99521.62;;;27.36;33.67
44313;BME280;38833;51.142;-0.974;2022-07-25T10:24:46;99529.42;;;27.60;33.58
44313;BME280;38833;51.142;-0.974;2022-07-25T10:27:21;99534.21;;;27.54;33.71
44313;BME280;38833;51.142;-0.974;2022-07-25T10:29:55;99533.43;;;27.51;33.77
44313;BME280;38833;51.142;-0.974;2022-07-25T10:32:32;99531.69;;;27.15;33.57
44313;BME280;38833;51.142;-0.974;2022-07-25T10:35:15;99536.54;;;27.38;33.67
44313;BME280;38833;51.142;-0.974;2022-07-25T10:37:50;99532.29;;;27.42;33.58
44313;BME280;38833;51.142;-0.974;2022-07-25T10:40:25;99531.28;;;27.18;33.53
44313;BME280;38833;51.142;-0.974;2022-07-25T10:43:05;99531.73;;;27.45;33.49
44313;BME280;38833;51.142;-0.974;2022-07-25T10:45:41;99536.73;;;27.62;33.64
44313;BME280;38833;51.142;-0.974;2022-07-25T10:48:21;99534.61;;;27.47;33.53
44313;BME280;38833;51.142;-0.974;2022-07-25T10:50:57;99542.00;;;27.62;33.32
44313;BME280;38833;51.142;-0.974;2022-07-25T10:53:32;99543.37;;;27.80;33.10
44313;BME280;38833;51.142;-0.974;2022-07-25T10:56:07;99545.91;;;27.58;32.99
44313;BME280;38833;51.142;-0.974;2022-07-25T10:58:43;99543.71;;;27.84;33.36
44313;BME280;38833;51.142;-0.974;2022-07-25T11:01:22;99554.06;;;27.85;33.05
44313;BME280;38833;51.142;-0.974;2022-07-25T11:03:57;99548.87;;;27.90;32.96
44313;BME280;38833;51.142;-0.974;2022-07-25T11:06:33;99552.43;;;28.10;32.96
44313;BME280;38833;51.142;-0.974;2022-07-25T11:09:13;99565.83;;;28.00;32.80
44313;BME280;38833;51.142;-0.974;2022-07-25T11:11:49;99569.80;;;28.01;32.81
44313;BME280;38833;51.142;-0.974;2022-07-25T11:14:24;99578.81;;;28.36;32.62
44313;BME280;38833;51.142;-0.974;2022-07-25T11:17:11;99582.71;;;27.88;32.60
44313;BME280;38833;51.142;-0.974;2022-07-25T11:19:54;99585.46;;;27.77;32.73
44313;BME280;38833;51.142;-0.974;2022-07-25T11:22:29;99594.79;;;27.78;33.09
44313;BME280;38833;51.142;-0.974;2022-07-25T11:25:10;99590.08;;;27.67;33.21
44313;BME280;38833;51.142;-0.974;2022-07-25T11:27:44;99596.10;;;27.85;32.98
44313;BME280;38833;51.142;-0.974;2022-07-25T11:30:21;99593.54;;;27.92;33.22
44313;BME280;38833;51.142;-0.974;2022-07-25T11:32:57;99591.17;;;27.70;33.22
44313;BME280;38833;51.142;-0.974;2022-07-25T11:35:32;99585.73;;;27.24;33.55
44313;BME280;38833;51.142;-0.974;2022-07-25T11:38:05;99594.46;;;27.76;33.50
44313;BME280;38833;51.142;-0.974;2022-07-25T11:40:42;99589.81;;;27.52;33.56
44313;BME280;38833;51.142;-0.974;2022-07-25T11:43:19;99588.49;;;27.55;33.60
44313;BME280;38833;51.142;-0.974;2022-07-25T11:45:58;99584.12;;;27.76;32.99
44313;BME280;38833;51.142;-0.974;2022-07-25T11:48:34;99582.70;;;27.87;33.31
44313;BME280;38833;51.142;-0.974;2022-07-25T11:51:12;99584.77;;;27.58;33.43
44313;BME280;38833;51.142;-0.974;2022-07-25T11:53:47;99581.88;;;27.79;33.60
44313;BME280;38833;51.142;-0.974;2022-07-25T11:56:22;99580.18;;;27.61;33.50
44313;BME280;38833;51.142;-0.974;2022-07-25T11:58:57;99583.21;;;27.69;33.56
44313;BME280;38833;51.142;-0.974;2022-07-25T12:01:33;99584.13;;;28.06;33.53
44313;BME280;38833;51.142;-0.974;2022-07-25T12:04:09;99580.50;;;27.90;33.38
44313;BME280;38833;51.142;-0.974;2022-07-25T12:06:44;99585.61;;;27.92;33.29
44313;BME280;38833;51.142;-0.974;2022-07-25T12:09:19;99581.93;;;28.34;33.18
44313;BME280;38833;51.142;-0.974;2022-07-25T12:12:01;99582.92;;;28.21;33.44
44313;BME280;38833;51.142;-0.974;2022-07-25T12:14:41;99579.90;;;28.14;33.59
44313;BME280;38833;51.142;-0.974;2022-07-25T12:17:15;99582.15;;;28.17;33.13
44313;BME280;38833;51.142;-0.974;2022-07-25T12:19:48;99584.48;;;28.20;33.07
44313;BME280;38833;51.142;-0.974;2022-07-25T12:22:22;99586.34;;;28.55;32.95
44313;BME280;38833;51.142;-0.974;2022-07-25T12:24:55;99583.96;;;28.30;32.86
44313;BME280;38833;51.142;-0.974;2022-07-25T12:27:28;99591.59;;;28.40;32.76
44313;BME280;38833;51.142;-0.974;2022-07-25T12:30:02;99589.15;;;28.42;32.79
44313;BME280;38833;51.142;-0.974;2022-07-25T12:32:35;99589.71;;;28.40;32.85
44313;BME280;38833;51.142;-0.974;2022-07-25T12:35:11;99586.77;;;27.97;33.43
44313;BME280;38833;51.142;-0.974;2022-07-25T12:37:45;99595.57;;;28.35;32.81
44313;BME280;38833;51.142;-0.974;2022-07-25T12:40:19;99589.28;;;27.88;33.43
44313;BME280;38833;51.142;-0.974;2022-07-25T12:42:52;99592.23;;;28.28;32.90
44313;BME280;38833;51.142;-0.974;2022-07-25T12:45:26;99591.64;;;28.25;32.91
44313;BME280;38833;51.142;-0.974;2022-07-25T12:47:59;99600.54;;;28.33;32.76
44313;BME280;38833;51.142;-0.974;2022-07-25T12:50:32;99598.12;;;28.35;32.79
44313;BME280;38833;51.142;-0.974;2022-07-25T12:53:06;99597.64;;;28.59;32.73
44313;BME280;38833;51.142;-0.974;2022-07-25T12:55:40;99603.47;;;28.42;32.62
44313;BME280;38833;51.142;-0.974;2022-07-25T12:58:14;99600.77;;;28.51;32.51
44313;BME280;38833;51.142;-0.974;2022-07-25T13:00:47;99603.29;;;28.44;32.64
44313;BME280;38833;51.142;-0.974;2022-07-25T13:03:21;99601.59;;;28.76;32.50
44313;BME280;38833;51.142;-0.974;2022-07-25T13:05:54;99606.70;;;28.36;32.76
44313;BME280;38833;51.142;-0.974;2022-07-25T13:08:27;99611.73;;;28.22;32.95
44313;BME280;38833;51.142;-0.974;2022-07-25T13:11:01;99619.41;;;28.13;33.10
44313;BME280;38833;51.142;-0.974;2022-07-25T13:13:34;99617.76;;;27.91;33.50
44313;BME280;38833;51.142;-0.974;2022-07-25T13:16:07;99624.78;;;27.86;33.58
44313;BME280;38833;51.142;-0.974;2022-07-25T13:18:41;99628.54;;;27.86;33.44
44313;BME280;38833;51.142;-0.974;2022-07-25T13:21:15;99633.89;;;28.23;33.22
44313;BME280;38833;51.142;-0.974;2022-07-25T13:23:48;99640.01;;;27.85;33.51
44313;BME280;38833;51.142;-0.974;2022-07-25T13:26:21;99635.44;;;27.84;33.61
44313;BME280;38833;51.142;-0.974;2022-07-25T13:28:54;99635.89;;;28.06;33.61